Time;durP1;ratioP1;P1;durP2;ratioP2;P2;SDS_P1;SDS_P2;PMS_P1;PMS_P2;Temp;Humidity;BMP_temperature;BMP_pressure;BME280_temperature;BME280_humidity;BME280_pressure;Samples;Min_cycle;Max_cycle;Signal;HPM_P1;HPM_P2
2022/04/29 04:27:02;;;;;;;1.37;1.27;;;;;;;15.71;49.07;100756.84;4238670;31;20129;-69
2022/04/29 04:29:32;;;;;;;2.45;1.67;;;;;;;16.56;46.65;100758.91;4280995;33;33898;-69
2022/04/29 04:32:00;;;;;;;2.25;1.62;;;;;;;16.73;44.89;100754.09;4288196;33;34643;-71
2022/04/29 04:37:13;;;;;;;2.37;1.60;;;;;;;17.79;41.71;100763.00;4287565;33;34727;-70
2022/04/29 04:39:41;;;;;;;2.37;1.48;;;;;;;18.16;42.49;100767.50;4287756;33;35069;-72
2022/04/29 04:42:10;;;;;;;1.27;1.12;;;;;;;18.06;44.32;100772.97;4288063;33;34513;-74
2022/04/29 04:44:38;;;;;;;1.40;1.30;;;;;;;18.89;40.51;100770.97;4275048;33;34362;-74
2022/04/29 04:47:06;;;;;;;1.70;1.30;;;;;;;19.36;38.97;100773.28;4273887;33;33205;-73
2022/04/29 04:49:34;;;;;;;1.77;1.27;;;;;;;19.69;36.38;100773.66;4275636;33;34329;-68
2022/04/29 04:52:04;;;;;;;1.25;1.10;;;;;;;19.88;37.87;100774.66;4288311;33;33469;-72
2022/04/29 04:54:32;;;;;;;1.33;1.20;;;;;;;19.91;39.10;100777.94;4288163;33;33548;-71
2022/04/29 04:56:59;;;;;;;1.52;1.33;;;;;;;18.88;37.99;100774.81;4287648;33;34740;-66
2022/04/29 04:59:27;;;;;;;1.25;1.05;;;;;;;19.61;40.41;100782.50;4275016;33;35098;-69
2022/04/29 05:01:57;;;;;;;1.05;0.95;;;;;;;19.47;35.82;100780.38;4274860;33;33589;-64
2022/04/29 05:04:28;;;;;;;2.40;1.05;;;;;;;19.58;38.01;100781.12;4287950;33;31631;-63
2022/04/29 05:06:56;;;;;;;1.45;1.15;;;;;;;20.08;36.05;100768.16;4287677;33;34428;-62
2022/04/29 05:09:24;;;;;;;1.12;0.98;;;;;;;20.11;36.46;100777.81;4288234;33;35068;-75
2022/04/29 05:11:52;;;;;;;1.02;0.90;;;;;;;20.12;39.33;100776.69;4289081;33;33944;-75
2022/04/29 05:14:38;;;;;;;1.92;1.27;;;;;;;20.85;36.39;100778.50;4289427;33;33009;-72
2022/04/29 05:17:05;;;;;;;1.85;1.25;;;;;;;21.85;33.54;100783.34;4289108;33;34711;-74
2022/04/29 05:19:36;;;;;;;1.30;1.20;;;;;;;22.10;30.39;100782.13;4289539;33;32123;-75
2022/04/29 05:22:05;;;;;;;1.45;1.35;;;;;;;22.15;30.98;100787.56;4289139;33;34080;-67
2022/04/29 05:24:34;;;;;;;1.25;1.10;;;;;;;22.51;30.80;100779.50;4291978;33;33443;-73
2022/04/29 05:27:05;;;;;;;1.40;1.20;;;;;;;22.47;29.94;100774.91;4303959;33;32035;-67
2022/04/29 05:29:41;;;;;;;1.42;1.33;;;;;;;22.67;29.55;100785.56;4303851;33;32584;-73
2022/04/29 05:32:14;;;;;;;1.85;1.10;;;;;;;21.94;29.42;100780.72;4302063;33;34139;-76
2022/04/29 05:34:47;;;;;;;1.77;1.27;;;;;;;22.02;31.64;100783.63;4303934;33;34266;-71
2022/04/29 05:37:18;;;;;;;2.22;1.42;;;;;;;22.36;29.21;100784.50;4290399;33;33651;-72
2022/04/29 05:42:32;;;;;;;1.83;1.25;;;;;;;21.82;31.69;100787.53;4303093;33;33705;-70
2022/04/29 05:45:02;;;;;;;1.35;1.17;;;;;;;22.12;32.67;100777.13;4303149;33;34432;-75
2022/04/29 05:47:30;;;;;;;1.25;1.10;;;;;;;22.59;31.23;100779.94;4303649;33;33925;-75
2022/04/29 05:49:58;;;;;;;1.27;1.12;;;;;;;23.06;29.68;100776.00;4304788;33;34191;-67
2022/04/29 05:52:26;;;;;;;1.50;1.30;;;;;;;22.97;29.62;100777.81;4305037;33;34047;-67
2022/04/29 05:54:54;;;;;;;1.23;1.10;;;;;;;23.12;29.97;100782.28;4304918;33;33507;-64
2022/04/29 05:57:22;;;;;;;1.40;1.08;;;;;;;22.16;32.45;100778.16;4304774;33;34117;-68
2022/04/29 05:59:50;;;;;;;1.92;1.20;;;;;;;23.12;30.38;100783.09;4305118;33;34251;-69
2022/04/29 06:02:23;;;;;;;1.12;1.05;;;;;;;22.41;29.50;100787.97;4304558;33;34028;-67
2022/04/29 06:04:52;;;;;;;1.48;1.20;;;;;;;22.98;30.79;100792.47;4305249;33;33636;-64
2022/04/29 06:07:19;;;;;;;1.40;1.25;;;;;;;21.92;31.46;100790.13;4305363;33;34018;-70
2022/04/29 06:09:47;;;;;;;1.00;0.90;;;;;;;22.94;29.29;100800.59;4303237;33;34361;-69
2022/04/29 06:12:16;;;;;;;1.42;1.00;;;;;;;23.44;28.28;100795.16;4299446;33;33733;-68
2022/04/29 06:14:45;;;;;;;1.37;1.17;;;;;;;24.21;27.79;100801.75;4303486;33;34287;-71
2022/04/29 06:17:14;;;;;;;1.20;1.10;;;;;;;23.58;29.79;100794.31;4303270;33;34623;-70
2022/04/29 06:19:47;;;;;;;1.08;0.98;;;;;;;23.96;30.16;100797.62;4303575;33;33698;-67
2022/04/29 06:22:15;;;;;;;2.37;1.30;;;;;;;22.20;26.51;100797.72;4303624;33;34726;-69
2022/04/29 06:24:44;;;;;;;1.62;1.20;;;;;;;21.18;30.28;100795.25;4303588;33;34567;-69
2022/04/29 06:27:32;;;;;;;1.62;1.02;;;;;;;21.66;27.55;100795.22;4303344;33;34140;-63
2022/04/29 06:30:00;;;;;;;1.10;1.00;;;;;;;20.96;31.04;100798.53;4303941;33;34186;-63
2022/04/29 06:32:30;;;;;;;1.50;1.23;;;;;;;20.98;29.90;100793.53;4303230;33;34539;-63
2022/04/29 06:35:00;;;;;;;1.20;1.10;;;;;;;22.84;28.80;100798.81;4303458;33;33007;-66
2022/04/29 06:37:28;;;;;;;1.62;1.27;;;;;;;23.93;26.44;100801.03;4303633;33;34948;-68
2022/04/29 06:39:57;;;;;;;1.37;1.20;;;;;;;23.31;24.58;100799.59;4303693;33;34618;-67
2022/04/29 06:42:29;;;;;;;1.20;0.95;;;;;;;22.22;25.64;100795.47;4303002;33;33987;-69
2022/04/29 06:44:59;;;;;;;2.47;1.00;;;;;;;22.52;24.27;100792.19;4303972;33;31976;-71
2022/04/29 06:47:30;;;;;;;1.80;1.12;;;;;;;22.31;24.70;100791.75;4303405;33;34898;-67
2022/04/29 06:50:00;;;;;;;1.30;1.05;;;;;;;21.17;25.55;100795.56;4303575;33;35544;-69
2022/04/29 06:52:29;;;;;;;2.40;1.40;;;;;;;20.71;28.19;100798.78;4303523;33;32887;-72
2022/04/29 06:54:59;;;;;;;1.62;1.08;;;;;;;20.98;27.15;100799.06;4302720;33;33669;-69
2022/04/29 06:57:26;;;;;;;1.98;1.30;;;;;;;21.21;26.47;100791.91;4303140;33;34209;-71
2022/04/29 06:59:54;;;;;;;2.87;1.17;;;;;;;21.16;27.34;100791.12;4302995;33;35168;-72
2022/04/29 07:02:21;;;;;;;1.45;0.90;;;;;;;21.33;25.06;100782.37;4303491;33;33744;-69
2022/04/29 07:04:49;;;;;;;1.25;1.00;;;;;;;20.57;26.03;100799.47;4303757;33;33518;-65
2022/04/29 07:07:17;;;;;;;1.60;1.40;;;;;;;20.36;26.46;100790.53;4303491;33;33643;-73
2022/04/29 07:09:46;;;;;;;1.20;1.10;;;;;;;19.75;28.05;100802.00;4303558;33;33628;-65
2022/04/29 07:12:42;;;;;;;;;;;;;;;20.44;27.38;100794.62;4303288;33;33743;-65
2022/04/29 07:15:11;;;;;;;1.37;1.20;;;;;;;20.06;28.65;100791.59;4303188;33;33443;-73
2022/04/29 07:17:40;;;;;;;1.12;1.00;;;;;;;20.52;26.23;100791.25;4303252;33;34899;-64
2022/04/29 07:20:10;;;;;;;2.03;1.33;;;;;;;20.44;27.58;100798.19;4303293;33;33842;-64
2022/04/29 07:22:40;;;;;;;1.23;1.02;;;;;;;20.73;25.95;100793.81;4302083;33;33621;-64
2022/04/29 07:25:09;;;;;;;1.45;1.20;;;;;;;20.70;25.86;100792.47;4302076;33;33275;-64
2022/04/29 07:27:38;;;;;;;1.00;0.90;;;;;;;20.65;26.87;100795.28;4301865;33;33625;-64
2022/04/29 07:30:08;;;;;;;1.70;1.15;;;;;;;20.24;25.70;100793.69;4302221;33;34606;-67
2022/04/29 07:32:36;;;;;;;1.67;1.20;;;;;;;20.11;27.03;100799.84;4302475;33;34004;-67
2022/04/29 07:43:36;;;;;;;2.00;1.37;;;;;;;19.90;25.22;100784.56;4292230;33;34284;-68
2022/04/29 07:46:04;;;;;;;1.15;1.00;;;;;;;19.65;26.51;100789.94;4302700;33;33718;-70
2022/04/29 07:48:34;;;;;;;2.15;1.37;;;;;;;19.88;24.53;100785.66;4302772;33;34041;-67
2022/04/29 07:51:03;;;;;;;1.65;1.23;;;;;;;19.21;30.36;100785.16;4302542;33;34096;-73
2022/04/29 07:53:30;;;;;;;1.52;1.30;;;;;;;19.63;28.04;100794.91;4302982;33;33953;-67
2022/04/29 07:55:58;;;;;;;1.48;1.15;;;;;;;20.19;26.64;100790.94;4302654;33;34212;-66
2022/04/29 07:58:26;;;;;;;1.75;1.40;;;;;;;20.12;25.61;100790.47;4302522;33;34026;-70
2022/04/29 08:00:55;;;;;;;1.30;1.12;;;;;;;20.11;28.35;100794.34;4304094;33;34439;-67
2022/04/29 08:03:37;;;;;;;1.98;1.10;;;;;;;20.29;26.31;100784.53;4304055;33;34495;-67
2022/04/29 08:06:06;;;;;;;1.92;1.40;;;;;;;21.12;28.48;100790.88;4304486;33;33631;-72
2022/04/29 08:08:35;;;;;;;1.27;1.17;;;;;;;21.01;24.38;100792.13;4291285;33;34485;-67
2022/04/29 08:11:03;;;;;;;0.93;0.93;;;;;;;20.11;25.87;100794.34;4303693;33;33697;-67
2022/04/29 08:13:34;;;;;;;1.52;1.25;;;;;;;19.77;27.61;100786.03;4291024;33;34678;-71
2022/04/29 08:16:25;;;;;;;1.50;1.40;;;;;;;20.20;26.10;100797.28;4294028;33;31719;-70
2022/04/29 08:18:53;;;;;;;1.42;1.30;;;;;;;20.49;24.59;100797.31;4304003;33;34058;-68
2022/04/29 08:21:21;;;;;;;1.58;1.30;;;;;;;19.92;25.64;100791.44;4304001;33;33853;-68
2022/04/29 08:23:49;;;;;;;1.98;1.40;;;;;;;19.45;26.44;100790.03;4304134;33;34143;-72
2022/04/29 08:26:17;;;;;;;2.28;1.20;;;;;;;20.14;25.46;100782.72;4304322;33;33284;-70
2022/04/29 08:28:44;;;;;;;1.70;1.37;;;;;;;19.82;25.31;100789.56;4304207;33;34928;-71
2022/04/29 08:31:13;;;;;;;1.62;1.25;;;;;;;19.54;26.18;100779.25;4304090;33;34278;-70
2022/04/29 08:33:41;;;;;;;2.20;1.55;;;;;;;19.93;26.24;100781.22;4291363;33;35106;-73
2022/04/29 08:36:09;;;;;;;1.23;1.12;;;;;;;19.62;24.69;100781.41;4304095;33;32565;-71
2022/04/29 08:38:38;;;;;;;2.53;1.62;;;;;;;19.62;25.95;100775.91;4304107;33;34106;-68
2022/04/29 08:41:06;;;;;;;1.33;1.17;;;;;;;20.11;28.23;100774.19;4304328;33;34178;-71
2022/04/29 08:43:35;;;;;;;1.87;1.45;;;;;;;20.07;24.78;100779.47;4302773;33;33993;-69
2022/04/29 08:46:08;;;;;;;1.95;1.37;;;;;;;20.57;24.79;100771.91;4304148;33;34202;-71
2022/04/29 08:48:43;;;;;;;1.70;1.50;;;;;;;20.67;25.78;100771.00;4291408;33;36422;-71
2022/04/29 08:51:10;;;;;;;2.67;1.52;;;;;;;19.70;26.86;100772.59;4290928;33;34067;-72
2022/04/29 08:53:38;;;;;;;2.22;1.52;;;;;;;19.78;25.59;100769.19;4303943;33;34570;-75
2022/04/29 08:58:53;;;;;;;2.20;1.70;;;;;;;20.33;24.73;100769.06;4303813;33;34072;-75
2022/04/29 09:01:21;;;;;;;1.30;1.10;;;;;;;20.00;26.76;100759.69;4303493;33;34986;-69
2022/04/29 09:03:48;;;;;;;2.05;1.58;;;;;;;19.83;27.72;100763.69;4303847;33;33672;-70
2022/04/29 09:06:17;;;;;;;1.80;1.30;;;;;;;20.40;27.91;100746.69;4303740;33;33403;-72
2022/04/29 09:08:48;;;;;;;2.70;1.45;;;;;;;20.02;26.71;100750.06;4303568;33;33977;-72
2022/04/29 09:11:21;;;;;;;2.33;1.40;;;;;;;19.98;24.80;100748.97;4303633;33;34143;-71
2022/04/29 09:13:49;;;;;;;1.83;1.40;;;;;;;19.74;27.74;100748.87;4303455;33;34813;-69
2022/04/29 09:16:17;;;;;;;1.50;1.37;;;;;;;20.43;24.88;100741.44;4303855;33;33000;-71
2022/04/29 09:18:55;;;;;;;2.40;1.17;;;;;;;19.00;26.69;100750.59;4303848;33;34882;-69
2022/04/29 09:21:25;;;;;;;1.50;1.12;;;;;;;18.92;27.51;100737.41;4303253;33;34177;-72
2022/04/29 09:24:03;;;;;;;1.85;1.48;;;;;;;19.40;25.13;100752.34;4303418;33;34906;-71
2022/04/29 09:26:35;;;;;;;2.05;1.50;;;;;;;19.71;26.10;100741.19;4303233;33;33586;-70
2022/04/29 09:29:12;;;;;;;2.72;1.50;;;;;;;20.17;25.04;100735.31;4290801;33;33347;-72
2022/04/29 09:31:58;;;;;;;1.62;1.20;;;;;;;20.29;24.06;100737.69;4303664;33;34965;-73
2022/04/29 09:34:48;;;;;;;1.58;1.25;;;;;;;19.80;25.43;100736.69;4303126;33;32695;-74
2022/04/29 09:37:18;;;;;;;1.95;1.55;;;;;;;20.05;24.88;100732.13;4290197;33;34202;-73
2022/04/29 09:40:05;;;;;;;1.58;1.33;;;;;;;19.64;24.71;100727.69;4303166;33;34048;-75
2022/04/29 09:42:43;;;;;;;2.17;1.42;;;;;;;19.84;24.42;100732.25;4288404;33;33855;-65
2022/04/29 09:45:21;;;;;;;1.80;1.35;;;;;;;19.36;24.89;100725.69;4288788;33;34130;-68
2022/04/29 09:47:56;;;;;;;2.03;1.30;;;;;;;20.27;23.49;100723.38;4275782;33;33163;-69
2022/04/29 09:50:50;;;;;;;1.87;1.10;;;;;;;20.77;23.52;100726.75;4288520;33;34153;-67
2022/04/29 09:53:17;;;;;;;1.33;1.17;;;;;;;19.93;24.96;100724.22;4288447;33;34290;-66
2022/04/29 09:56:08;;;;;;;2.15;1.35;;;;;;;19.99;25.09;100727.75;4290251;33;34418;-75
2022/04/29 09:58:35;;;;;;;1.33;1.15;;;;;;;20.03;26.81;100715.06;4290655;33;33604;-77
2022/04/29 10:01:04;;;;;;;1.90;1.12;;;;;;;19.56;26.47;100710.97;4296614;33;34129;-72
2022/04/29 10:03:35;;;;;;;1.17;1.00;;;;;;;20.32;24.79;100719.75;4304767;33;33962;-73
2022/04/29 10:06:05;;;;;;;1.75;1.08;;;;;;;20.38;24.25;100715.84;4292209;33;33997;-70
2022/04/29 10:08:33;;;;;;;2.45;1.77;;;;;;;20.55;24.64;100713.44;4294993;33;33297;-77
2022/04/29 10:11:01;;;;;;;2.10;1.80;;;;;;;20.71;24.44;100716.06;4300535;33;33612;-71
2022/04/29 10:13:29;;;;;;;2.05;1.40;;;;;;;20.84;24.21;100709.84;4290318;33;34070;-69
2022/04/29 10:15:57;;;;;;;1.20;1.10;;;;;;;20.77;25.15;100710.19;4296368;33;34231;-68
2022/04/29 10:21:18;;;;;;;1.67;1.35;;;;;;;19.77;23.35;100715.25;4294742;33;34680;-66
2022/04/29 10:23:50;;;;;;;1.30;1.20;;;;;;;19.86;27.38;100716.28;4304676;33;35021;-67
2022/04/29 10:26:18;;;;;;;1.42;1.10;;;;;;;19.90;23.95;100708.28;4304255;33;34983;-67
2022/04/29 10:28:45;;;;;;;1.60;1.20;;;;;;;20.12;25.27;100698.72;4304544;33;33566;-77
2022/04/29 10:31:17;;;;;;;1.87;1.20;;;;;;;19.46;24.90;100701.66;4304056;33;34676;-72
2022/04/29 10:33:45;;;;;;;1.35;1.05;;;;;;;19.65;24.40;100700.97;4302960;33;34009;-78
2022/04/29 10:36:15;;;;;;;1.70;1.20;;;;;;;20.45;23.36;100697.00;4303905;33;34694;-78
2022/04/29 10:38:46;;;;;;;1.10;1.00;;;;;;;20.35;24.92;100689.69;4303424;33;33476;-71
2022/04/29 10:41:26;;;;;;;1.20;1.10;;;;;;;20.75;22.46;100693.12;4303681;33;34122;-73
2022/04/29 10:43:53;;;;;;;1.73;1.45;;;;;;;20.97;22.25;100691.75;4303145;33;35144;-69
2022/04/29 10:46:30;;;;;;;1.12;1.02;;;;;;;20.87;22.79;100685.25;4304671;33;33826;-68
2022/04/29 10:49:19;;;;;;;1.25;1.15;;;;;;;20.72;23.66;100688.19;4303304;33;33262;-70
2022/04/29 10:52:02;;;;;;;1.33;1.15;;;;;;;20.50;24.44;100683.19;4290978;33;33832;-72
2022/04/29 10:54:35;;;;;;;1.40;1.30;;;;;;;20.36;22.26;100683.03;4304615;33;35210;-68
2022/04/29 10:57:12;;;;;;;2.47;1.42;;;;;;;20.59;30.30;100681.44;4304589;33;33910;-72
2022/04/29 10:59:57;;;;;;;1.65;1.30;;;;;;;21.14;29.48;100685.75;4292000;33;33717;-72
2022/04/29 11:02:30;;;;;;;2.05;1.00;;;;;;;20.33;30.13;100680.06;4304061;33;34674;-70
2022/04/29 11:04:59;;;;;;;1.40;1.23;;;;;;;20.77;27.33;100674.34;4304296;33;34330;-70
2022/04/29 11:07:34;;;;;;;1.37;1.10;;;;;;;21.62;28.92;100669.91;4303658;33;34199;-73
2022/04/29 11:10:03;;;;;;;1.00;1.00;;;;;;;21.89;29.56;100662.81;4304477;33;34591;-68
2022/04/29 11:12:38;;;;;;;1.75;1.30;;;;;;;22.12;27.42;100666.56;4279925;33;33717;-72
2022/04/29 11:15:21;;;;;;;1.42;1.00;;;;;;;21.31;28.15;100656.50;4291849;33;32553;-72
2022/04/29 11:17:49;;;;;;;2.08;1.30;;;;;;;20.55;28.28;100658.31;4304149;33;33821;-69
2022/04/29 11:20:18;;;;;;;1.45;1.20;;;;;;;21.91;28.09;100655.84;4287257;33;34238;-77
2022/04/29 11:25:48;;;;;;;1.58;1.15;;;;;;;21.39;26.90;100648.69;4292484;33;34103;-77
2022/04/29 11:28:17;;;;;;;1.33;1.12;;;;;;;22.12;29.24;100644.47;4303415;33;34381;-69
2022/04/29 11:30:49;;;;;;;1.35;1.10;;;;;;;22.65;28.51;100644.00;4303153;33;34332;-70
2022/04/29 11:33:22;;;;;;;1.55;1.15;;;;;;;22.28;25.42;100640.28;4284659;33;33889;-69
2022/04/29 11:35:51;;;;;;;1.70;1.60;;;;;;;21.90;28.72;100640.41;4276019;33;34169;-67
2022/04/29 11:38:19;;;;;;;1.30;1.20;;;;;;;22.62;27.18;100635.50;4288670;33;34504;-69
2022/04/29 11:40:47;;;;;;;1.77;1.15;;;;;;;22.08;28.48;100632.38;4288992;33;33203;-69
2022/04/29 11:43:22;;;;;;;1.45;1.20;;;;;;;21.75;29.18;100640.69;4276186;33;33843;-73
2022/04/29 11:46:05;;;;;;;1.35;1.20;;;;;;;20.67;29.42;100631.19;4300912;33;34301;-72
2022/04/29 11:48:34;;;;;;;1.27;1.15;;;;;;;20.12;29.31;100633.41;4300630;33;33925;-73
2022/04/29 11:51:04;;;;;;;1.75;1.40;;;;;;;20.96;30.88;100627.50;4303804;33;33146;-72
2022/04/29 11:53:32;;;;;;;1.30;1.20;;;;;;;21.80;27.21;100628.72;4290624;33;33635;-73
2022/04/29 11:56:00;;;;;;;2.55;1.67;;;;;;;21.92;27.35;100620.75;4302969;33;35225;-68
2022/04/29 11:58:29;;;;;;;1.92;1.30;;;;;;;21.82;29.11;100621.78;4289599;33;34031;-71
2022/04/29 12:00:57;;;;;;;1.80;1.27;;;;;;;21.18;29.45;100617.81;4301396;33;33454;-69
2022/04/29 12:03:25;;;;;;;1.55;1.27;;;;;;;20.75;29.28;100607.63;4289358;33;34043;-70
2022/04/29 12:05:53;;;;;;;1.30;1.15;;;;;;;19.57;29.77;100616.28;4303136;33;33958;-68
2022/04/29 12:08:21;;;;;;;1.95;1.23;;;;;;;20.06;29.76;100607.03;4303222;33;33736;-68
2022/04/29 12:10:49;;;;;;;1.73;1.50;;;;;;;20.52;27.37;100606.53;4302645;33;33502;-71
2022/04/29 12:13:18;;;;;;;1.35;1.10;;;;;;;20.31;26.16;100597.66;4302742;33;33879;-69
2022/04/29 12:15:46;;;;;;;1.45;1.20;;;;;;;20.32;26.85;100595.72;4289773;33;34173;-68
2022/04/29 12:18:15;;;;;;;2.15;1.67;;;;;;;19.86;26.45;100605.31;4302242;33;33828;-71
2022/04/29 12:20:55;;;;;;;1.42;1.25;;;;;;;20.18;26.63;100593.69;4290250;33;33374;-73
2022/04/29 12:23:26;;;;;;;1.75;1.50;;;;;;;20.88;24.66;100589.53;4302646;33;35056;-69
2022/04/29 12:25:55;;;;;;;1.37;1.15;;;;;;;20.81;24.59;100595.41;4302512;33;35053;-70
2022/04/29 12:28:25;;;;;;;1.30;1.20;;;;;;;20.36;25.47;100596.78;4303148;33;34068;-69
2022/04/29 12:36:57;;;;;;;2.10;1.50;;;;;;;22.03;25.79;100591.00;4302685;33;33892;-72
2022/04/29 12:39:37;;;;;;;2.22;1.60;;;;;;;21.85;30.37;100584.44;4278117;33;32498;-70
2022/04/29 12:42:07;;;;;;;1.73;1.25;;;;;;;22.23;28.58;100584.31;4302622;33;33557;-69
2022/04/29 12:45:14;;;;;;;1.35;1.15;;;;;;;21.18;28.46;100570.88;4287856;33;34709;-70
2022/04/29 12:47:44;;;;;;;3.15;2.20;;;;;;;22.07;28.20;100581.81;4290665;33;34168;-76
2022/04/29 12:50:36;;;;;;;2.17;1.60;;;;;;;21.54;31.73;100575.87;4289971;33;34219;-72
2022/04/29 12:53:08;;;;;;;1.65;1.40;;;;;;;22.10;29.71;100578.44;4289436;33;33017;-73
2022/04/29 12:55:49;;;;;;;1.65;1.20;;;;;;;22.64;24.74;100566.88;4302725;33;34691;-75
2022/04/29 12:58:24;;;;;;;2.03;1.10;;;;;;;21.53;29.96;100563.16;4289797;33;34056;-73
2022/04/29 13:00:52;;;;;;;1.40;1.20;;;;;;;20.74;29.41;100553.59;4289189;33;33883;-72
2022/04/29 13:03:22;;;;;;;1.70;1.08;;;;;;;20.53;28.42;100554.97;4301488;33;33227;-73
2022/04/29 13:05:50;;;;;;;1.98;1.25;;;;;;;20.18;30.52;100557.06;4289609;33;34168;-78
2022/04/29 13:08:18;;;;;;;1.25;1.15;;;;;;;21.15;29.59;100550.25;4302462;33;34247;-70
2022/04/29 13:10:50;;;;;;;1.40;1.10;;;;;;;20.81;30.53;100551.28;4302180;33;35197;-69
2022/04/29 13:13:20;;;;;;;1.23;1.12;;;;;;;20.59;26.10;100543.59;4289250;33;34102;-69
2022/04/29 13:15:48;;;;;;;3.55;2.20;;;;;;;20.40;26.88;100548.22;4300576;33;34858;-75
2022/04/29 13:18:18;;;;;;;2.78;1.90;;;;;;;20.88;27.57;100545.41;4288752;33;35014;-68
2022/04/29 13:20:46;;;;;;;1.42;1.20;;;;;;;21.41;28.38;100542.37;4289147;33;33892;-68
2022/04/29 13:23:15;;;;;;;1.50;1.20;;;;;;;21.43;26.46;100533.81;4289398;33;33354;-68
2022/04/29 13:25:45;;;;;;;1.95;1.30;;;;;;;22.27;26.11;100536.38;4289344;33;34065;-72
2022/04/29 13:28:12;;;;;;;1.42;1.08;;;;;;;22.18;25.58;100529.91;4302111;33;34196;-68
2022/04/29 13:30:40;;;;;;;1.55;1.08;;;;;;;22.57;25.20;100522.19;4303174;33;33779;-68
2022/04/29 13:33:08;;;;;;;1.80;1.35;;;;;;;22.20;25.08;100524.91;4303733;33;34199;-73
2022/04/29 13:35:37;;;;;;;1.52;1.20;;;;;;;22.33;28.94;100520.50;4303106;33;33997;-70
2022/04/29 13:38:06;;;;;;;1.15;1.08;;;;;;;22.99;24.33;100512.66;4303905;33;33947;-70
2022/04/29 13:40:34;;;;;;;1.20;1.02;;;;;;;23.15;25.68;100524.19;4290929;33;34262;-71
2022/04/29 13:43:01;;;;;;;0.90;0.90;;;;;;;23.44;27.39;100517.41;4290067;33;34181;-75
2022/04/29 13:45:29;;;;;;;1.15;1.05;;;;;;;23.57;24.28;100513.72;4289276;33;33734;-72
2022/04/29 13:47:56;;;;;;;0.82;0.82;;;;;;;22.87;24.78;100517.91;4298681;33;34029;-73
2022/04/29 13:50:24;;;;;;;1.27;1.10;;;;;;;22.58;22.20;100516.38;4290859;33;34757;-68
2022/04/29 13:55:46;;;;;;;1.65;1.10;;;;;;;20.92;28.27;100513.34;4303785;33;33818;-77
2022/04/29 13:58:15;;;;;;;1.10;0.90;;;;;;;20.48;25.29;100509.81;4291125;33;35054;-72
2022/04/29 14:00:43;;;;;;;1.62;1.30;;;;;;;20.61;24.31;100504.72;4303850;33;34040;-75
2022/04/29 14:03:11;;;;;;;1.87;1.00;;;;;;;21.00;24.25;100501.63;4290794;33;32672;-67
2022/04/29 14:05:39;;;;;;;2.25;1.10;;;;;;;20.71;24.09;100503.72;4303777;33;33605;-72
2022/04/29 14:08:07;;;;;;;2.58;1.60;;;;;;;20.54;25.55;100496.78;4303904;33;34103;-69
2022/04/29 14:10:35;;;;;;;2.45;1.48;;;;;;;20.49;25.52;100494.06;4303948;33;33851;-69
2022/04/29 14:13:05;;;;;;;1.27;1.10;;;;;;;20.46;25.98;100501.00;4303945;33;34324;-77
2022/04/29 14:15:32;;;;;;;1.40;1.30;;;;;;;20.09;25.49;100499.03;4292339;33;33945;-72
2022/04/29 14:18:00;;;;;;;2.25;1.30;;;;;;;20.04;26.10;100504.56;4304157;33;34171;-70
2022/04/29 14:20:27;;;;;;;1.37;1.20;;;;;;;20.63;26.05;100496.97;4291863;33;33911;-70
2022/04/29 14:22:55;;;;;;;1.48;1.15;;;;;;;20.36;24.64;100489.31;4305005;33;33432;-69
2022/04/29 14:25:23;;;;;;;1.40;1.15;;;;;;;20.32;24.33;100488.25;4291740;33;33951;-73
2022/04/29 14:27:51;;;;;;;1.35;1.20;;;;;;;20.74;24.12;100498.44;4291642;33;33486;-77
2022/04/29 14:30:18;;;;;;;1.75;1.20;;;;;;;20.83;25.37;100484.81;4291714;33;33611;-69
2022/04/29 14:32:46;;;;;;;1.70;1.30;;;;;;;21.07;27.88;100490.22;4301154;33;33342;-72
2022/04/29 14:35:13;;;;;;;1.60;1.23;;;;;;;21.84;25.83;100486.94;4304820;33;33881;-80
2022/04/29 14:37:41;;;;;;;1.77;1.08;;;;;;;21.35;26.78;100482.81;4304330;33;33782;-75
2022/04/29 14:40:10;;;;;;;1.20;1.10;;;;;;;21.45;28.17;100481.88;4287558;33;33952;-76
2022/04/29 14:42:37;;;;;;;1.37;1.05;;;;;;;21.70;26.93;100480.56;4290373;33;33577;-73
2022/04/29 14:45:05;;;;;;;1.55;1.25;;;;;;;21.63;27.66;100482.91;4290570;33;33990;-81
2022/04/29 14:47:33;;;;;;;1.77;1.17;;;;;;;21.71;26.56;100476.69;4289600;33;34937;-80
2022/04/29 14:50:02;;;;;;;1.50;1.15;;;;;;;21.91;26.10;100478.22;4290241;33;33716;-74
2022/04/29 14:52:30;;;;;;;1.85;1.40;;;;;;;22.01;26.35;100468.91;4290255;33;33337;-79
2022/04/29 14:54:58;;;;;;;1.70;1.25;;;;;;;22.38;25.05;100469.81;4290316;33;34022;-68
2022/04/29 14:57:25;;;;;;;1.42;1.05;;;;;;;22.03;27.87;100473.00;4288922;33;35095;-77
2022/04/29 14:59:58;;;;;;;0.98;0.95;;;;;;;21.02;27.07;100469.03;4289478;33;33982;-72
2022/04/29 15:02:26;;;;;;;2.75;1.45;;;;;;;21.43;25.27;100467.56;4289959;33;33208;-75
2022/04/29 15:04:54;;;;;;;1.30;1.10;;;;;;;21.70;27.15;100470.31;4285056;33;33793;-69
2022/04/29 15:07:22;;;;;;;1.17;1.08;;;;;;;21.62;27.76;100461.94;4289204;33;33966;-69
2022/04/29 15:15:35;;;;;;;1.25;1.10;;;;;;;21.55;27.79;100453.25;4289109;33;34009;-72
2022/04/29 15:18:06;;;;;;;1.95;1.30;;;;;;;21.83;29.97;100452.12;4277127;33;33898;-70
2022/04/29 15:20:35;;;;;;;1.20;1.10;;;;;;;22.21;27.62;100449.12;4275222;33;33475;-70
2022/04/29 15:23:03;;;;;;;2.00;1.48;;;;;;;21.97;27.33;100456.84;4275981;33;34041;-69
2022/04/29 15:25:33;;;;;;;1.40;1.10;;;;;;;22.24;26.03;100447.72;4288869;33;33983;-71
2022/04/29 15:28:02;;;;;;;1.37;1.10;;;;;;;21.97;25.89;100448.56;4288826;33;34206;-69
2022/04/29 15:30:43;;;;;;;1.65;1.33;;;;;;;21.38;26.99;100449.12;4275879;33;34728;-69
2022/04/29 15:33:12;;;;;;;1.42;1.25;;;;;;;21.29;25.82;100439.88;4288702;33;33348;-71
2022/04/29 15:35:41;;;;;;;1.20;1.10;;;;;;;21.18;25.53;100446.72;4275948;33;34589;-70
2022/04/29 15:38:09;;;;;;;1.87;1.12;;;;;;;21.82;26.42;100442.22;4275642;33;34976;-71
2022/04/29 15:40:37;;;;;;;1.45;1.20;;;;;;;21.54;27.40;100441.38;4275970;33;33925;-71
2022/04/29 15:43:10;;;;;;;1.10;1.00;;;;;;;21.59;27.52;100434.94;4275903;33;33446;-69
2022/04/29 15:45:39;;;;;;;2.00;1.30;;;;;;;21.49;27.56;100439.53;4288564;33;34384;-68
2022/04/29 15:48:08;;;;;;;2.10;1.40;;;;;;;21.58;28.86;100436.91;4275529;33;34905;-72
2022/04/29 15:50:38;;;;;;;2.47;1.20;;;;;;;21.20;28.13;100434.25;4288184;33;34664;-71
2022/04/29 15:53:07;;;;;;;2.10;1.30;;;;;;;20.99;27.66;100438.47;4279363;33;33544;-66
2022/04/29 15:55:35;;;;;;;1.48;1.17;;;;;;;19.99;28.81;100431.09;4288683;33;34029;-64
2022/04/29 15:58:07;;;;;;;2.65;1.50;;;;;;;20.49;28.31;100433.44;4288530;33;33956;-65
2022/04/29 16:00:36;;;;;;;1.58;1.23;;;;;;;19.49;29.40;100436.06;4288821;33;34099;-65
2022/04/29 16:03:05;;;;;;;1.87;1.42;;;;;;;20.39;28.80;100428.91;4288262;33;33493;-65
2022/04/29 16:05:33;;;;;;;1.90;1.35;;;;;;;20.61;29.92;100431.09;4288520;33;34037;-66
2022/04/29 16:08:01;;;;;;;2.33;1.52;;;;;;;20.78;29.65;100435.25;4287653;33;34290;-66
2022/04/29 16:10:29;;;;;;;1.87;1.40;;;;;;;20.80;28.68;100432.97;4297367;33;33958;-72
2022/04/29 16:12:57;;;;;;;1.27;1.17;;;;;;;20.49;30.29;100423.22;4302991;33;33982;-71
2022/04/29 16:15:25;;;;;;;1.77;1.33;;;;;;;20.08;28.95;100426.56;4302963;33;33609;-64
2022/04/29 16:20:39;;;;;;;2.37;1.60;;;;;;;20.16;28.59;100424.28;4302722;33;34685;-65
2022/04/29 16:25:55;;;;;;;3.35;1.77;;;;;;;20.78;28.66;100421.47;4302630;33;34038;-63
2022/04/29 16:28:24;;;;;;;1.90;1.40;;;;;;;20.60;28.71;100415.66;4302293;33;33971;-63
2022/04/29 16:30:52;;;;;;;2.42;1.85;;;;;;;20.85;28.25;100411.66;4302643;33;34033;-69
2022/04/29 16:33:21;;;;;;;2.22;1.45;;;;;;;20.33;27.90;100412.75;4302390;33;33485;-65
2022/04/29 16:35:50;;;;;;;2.53;2.03;;;;;;;20.19;27.20;100420.91;4302302;33;33786;-63
2022/04/29 16:38:19;;;;;;;4.62;3.58;;;;;;;19.63;28.36;100423.25;4302594;33;34121;-68
2022/04/29 16:40:46;;;;;;;3.60;1.90;;;;;;;19.25;29.09;100423.09;4302383;33;33948;-68
2022/04/29 16:43:14;;;;;;;8.02;5.18;;;;;;;18.89;29.82;100419.03;4302762;33;33492;-71
2022/04/29 16:45:42;;;;;;;8.63;5.15;;;;;;;19.52;29.73;100427.22;4302366;33;33906;-64
2022/04/29 16:48:09;;;;;;;3.70;2.75;;;;;;;19.70;29.47;100420.19;4302178;33;35100;-69